Time;durP1;ratioP1;P1;durP2;ratioP2;P2;SDS_P1;SDS_P2;PMS_P1;PMS_P2;Temp;Humidity;BMP_temperature;BMP_pressure;BME280_temperature;BME280_humidity;BME280_pressure;Samples;Min_cycle;Max_cycle;Signal;HPM_P1;HPM_P2
2022/12/02 00:01:35;;;;;;;14.60;13.10;;;;;;;;;;5118533;27;20783;-82
2022/12/02 00:04:01;;;;;;;15.05;13.43;;;;;;;;;;5129978;27;20455;-82
2022/12/02 00:06:31;;;;;;;14.48;12.98;;;;;;;;;;5135835;27;20374;-83
2022/12/02 00:09:07;;;;;;;13.93;12.50;;;;;;;;;;5137361;27;20397;-81
2022/12/02 00:11:33;;;;;;;14.45;12.95;;;;;;;;;;5137062;27;20402;-81
2022/12/02 00:14:01;;;;;;;14.23;12.70;;;;;;;;;;5118386;27;20413;-82
2022/12/02 00:16:27;;;;;;;14.40;12.05;;;;;;;;;;5136493;27;20398;-82
2022/12/02 00:18:54;;;;;;;13.80;12.40;;;;;;;;;;5136678;27;20768;-80
2022/12/02 00:21:21;;;;;;;13.02;11.70;;;;;;;;;;5136529;27;20438;-81
2022/12/02 00:23:47;;;;;;;12.73;11.52;;;;;;;;;;5136627;27;20424;-81
2022/12/02 00:26:13;;;;;;;14.07;12.68;;;;;;;;;;5118062;27;20852;-81
2022/12/02 00:28:39;;;;;;;13.73;12.32;;;;;;;;;;5136728;27;20379;-82
2022/12/02 00:31:05;;;;;;;13.18;11.80;;;;;;;;;;5117999;27;20878;-82
2022/12/02 00:33:31;;;;;;;13.45;12.05;;;;;;;;;;5139242;27;20460;-81
2022/12/02 00:35:57;;;;;;;13.20;11.80;;;;;;;;;;5117929;27;20391;-82
2022/12/02 00:38:23;;;;;;;12.73;11.43;;;;;;;;;;5136651;27;20401;-81
2022/12/02 00:40:49;;;;;;;13.23;11.85;;;;;;;;;;5117542;27;20463;-82
2022/12/02 00:48:44;;;;;;;12.75;11.25;;;;;;;;;;5134977;27;20409;-81
2022/12/02 00:51:12;;;;;;;12.50;11.30;;;;;;;;;;5135447;27;20406;-82
2022/12/02 00:53:38;;;;;;;12.73;11.50;;;;;;;;;;5135958;27;20427;-82
2022/12/02 00:56:04;;;;;;;12.18;10.98;;;;;;;;;;5135876;27;20890;-82
2022/12/02 00:58:30;;;;;;;11.93;10.73;;;;;;;;;;5135796;27;20381;-82
2022/12/02 01:00:56;;;;;;;12.93;11.60;;;;;;;;;;5135937;27;20410;-81
2022/12/02 01:03:22;;;;;;;11.38;10.27;;;;;;;;;;5133954;27;20378;-81
2022/12/02 01:05:48;;;;;;;11.30;10.20;;;;;;;;;;5128619;27;20878;-81
2022/12/02 01:08:14;;;;;;;10.65;9.55;;;;;;;;;;5135544;27;20374;-81
2022/12/02 01:10:40;;;;;;;11.27;10.17;;;;;;;;;;5135577;27;20956;-81
2022/12/02 01:13:06;;;;;;;11.57;10.38;;;;;;;;;;5135629;27;20386;-81
2022/12/02 01:15:32;;;;;;;11.07;9.98;;;;;;;;;;5135635;27;20423;-81
2022/12/02 01:17:59;;;;;;;11.30;10.10;;;;;;;;;;5135484;27;20874;-81
2022/12/02 01:20:25;;;;;;;11.45;10.32;;;;;;;;;;5134450;27;20363;-81
2022/12/02 01:22:51;;;;;;;11.63;10.48;;;;;;;;;;5135528;27;20920;-81
2022/12/02 01:25:17;;;;;;;10.85;9.77;;;;;;;;;;5135441;27;20398;-81
2022/12/02 01:27:43;;;;;;;10.73;9.73;;;;;;;;;;5135617;27;20860;-80
2022/12/02 01:30:09;;;;;;;10.90;9.80;;;;;;;;;;5135591;27;20366;-81
2022/12/02 01:32:35;;;;;;;10.90;9.90;;;;;;;;;;5135062;27;20465;-81
2022/12/02 01:35:01;;;;;;;11.20;10.10;;;;;;;;;;5119459;27;20485;-81
2022/12/02 01:37:27;;;;;;;11.30;10.20;;;;;;;;;;5134994;27;20386;-81
2022/12/02 01:39:53;;;;;;;11.20;10.10;;;;;;;;;;5134930;27;20378;-83
2022/12/02 01:42:19;;;;;;;10.50;9.40;;;;;;;;;;5116327;27;20505;-83
2022/12/02 01:44:45;;;;;;;11.93;10.68;;;;;;;;;;5116219;27;20374;-82
2022/12/02 01:47:11;;;;;;;11.02;10.00;;;;;;;;;;5134981;27;20383;-83
2022/12/02 01:49:37;;;;;;;12.48;10.65;;;;;;;;;;5131643;27;20370;-83
2022/12/02 01:52:03;;;;;;;11.35;10.23;;;;;;;;;;5134923;27;20379;-82
2022/12/02 01:54:35;;;;;;;12.50;10.80;;;;;;;;;;5134595;27;20398;-83
2022/12/02 01:57:01;;;;;;;11.10;9.90;;;;;;;;;;5104274;28;20726;-81
2022/12/02 01:59:27;;;;;;;11.63;9.93;;;;;;;;;;5094998;27;20390;-82
2022/12/02 02:01:53;;;;;;;10.63;9.63;;;;;;;;;;5121697;27;20415;-82
2022/12/02 02:04:19;;;;;;;10.50;9.50;;;;;;;;;;5124858;27;20386;-81
2022/12/02 02:06:46;;;;;;;9.77;8.88;;;;;;;;;;5097687;28;20488;-81
2022/12/02 02:09:12;;;;;;;10.52;9.50;;;;;;;;;;5125478;27;20397;-81
2022/12/02 02:11:39;;;;;;;9.70;8.70;;;;;;;;;;5119919;27;20831;-83
2022/12/02 02:14:06;;;;;;;10.43;9.38;;;;;;;;;;5130620;27;20386;-82
2022/12/02 02:16:32;;;;;;;9.57;8.68;;;;;;;;;;5117536;27;20371;-81
2022/12/02 02:18:58;;;;;;;11.27;10.18;;;;;;;;;;5112161;27;20458;-81
2022/12/02 02:21:27;;;;;;;9.90;9.00;;;;;;;;;;5117511;27;20411;-81
2022/12/02 02:23:53;;;;;;;9.48;8.68;;;;;;;;;;5114560;27;20390;-82
2022/12/02 02:26:19;;;;;;;9.88;8.98;;;;;;;;;;5112900;27;20386;-82
2022/12/02 02:28:45;;;;;;;10.73;9.73;;;;;;;;;;5114271;27;20382;-81
2022/12/02 02:31:11;;;;;;;9.68;8.77;;;;;;;;;;5093260;28;20873;-81
2022/12/02 02:33:37;;;;;;;10.40;9.50;;;;;;;;;;5128268;27;20371;-81
2022/12/02 02:36:04;;;;;;;9.80;8.88;;;;;;;;;;5122418;27;20390;-83
2022/12/02 02:38:30;;;;;;;9.77;8.88;;;;;;;;;;5133834;27;20375;-81
2022/12/02 02:40:57;;;;;;;8.50;7.70;;;;;;;;;;5133333;27;20482;-81
2022/12/02 02:43:24;;;;;;;8.63;7.82;;;;;;;;;;5133638;27;20860;-81
2022/12/02 02:45:50;;;;;;;9.27;8.48;;;;;;;;;;5133774;27;20382;-81
2022/12/02 02:48:17;;;;;;;9.00;8.20;;;;;;;;;;5133810;27;20383;-81
2022/12/02 02:50:44;;;;;;;9.02;8.13;;;;;;;;;;5133740;27;20918;-81
2022/12/02 02:53:11;;;;;;;8.77;7.88;;;;;;;;;;5133982;27;20378;-81
2022/12/02 02:55:37;;;;;;;9.30;8.35;;;;;;;;;;5127665;27;20466;-81
2022/12/02 02:58:08;;;;;;;9.50;8.60;;;;;;;;;;5121710;27;20366;-81
2022/12/02 03:00:34;;;;;;;9.73;7.80;;;;;;;;;;5114049;27;20462;-82
2022/12/02 03:03:00;;;;;;;8.85;8.05;;;;;;;;;;5119903;27;20371;-81
2022/12/02 03:05:26;;;;;;;8.65;7.85;;;;;;;;;;5104448;27;20383;-81
2022/12/02 03:07:52;;;;;;;8.88;7.97;;;;;;;;;;5133400;27;20443;-81
2022/12/02 03:10:18;;;;;;;9.02;8.13;;;;;;;;;;5114503;27;20401;-82
2022/12/02 03:12:45;;;;;;;8.65;7.85;;;;;;;;;;5133018;27;20439;-81
2022/12/02 03:15:12;;;;;;;7.90;7.20;;;;;;;;;;5130937;27;20379;-81
2022/12/02 03:17:38;;;;;;;7.93;7.17;;;;;;;;;;5126645;27;20929;-82
2022/12/02 03:20:04;;;;;;;7.72;7.03;;;;;;;;;;5115336;27;20459;-82
2022/12/02 03:22:30;;;;;;;7.68;6.97;;;;;;;;;;5123448;27;20416;-82
2022/12/02 03:24:56;;;;;;;8.00;7.20;;;;;;;;;;5124945;27;20847;-83
2022/12/02 03:27:22;;;;;;;7.40;6.80;;;;;;;;;;5133642;27;20410;-83
2022/12/02 03:29:49;;;;;;;7.70;7.00;;;;;;;;;;5134973;27;20406;-83
2022/12/02 03:32:15;;;;;;;7.43;6.72;;;;;;;;;;5129948;27;20445;-81
2022/12/02 03:34:41;;;;;;;7.43;6.70;;;;;;;;;;5132365;27;21006;-81
2022/12/02 03:37:07;;;;;;;7.70;7.00;;;;;;;;;;5113646;27;20390;-81
2022/12/02 03:39:33;;;;;;;7.55;6.93;;;;;;;;;;5132530;27;20378;-81
2022/12/02 03:41:59;;;;;;;7.80;7.10;;;;;;;;;;5132194;27;20414;-82
2022/12/02 03:44:25;;;;;;;7.70;6.93;;;;;;;;;;5132629;27;20864;-82
2022/12/02 03:46:52;;;;;;;9.00;7.63;;;;;;;;;;5132991;27;20383;-82
2022/12/02 03:49:18;;;;;;;8.25;7.32;;;;;;;;;;5133170;27;20386;-82
2022/12/02 03:51:44;;;;;;;7.70;7.00;;;;;;;;;;5133284;27;20398;-82
2022/12/02 03:54:11;;;;;;;7.88;7.18;;;;;;;;;;5133284;27;20391;-82
2022/12/02 03:56:38;;;;;;;8.13;7.32;;;;;;;;;;5127951;27;20384;-82
2022/12/02 03:59:04;;;;;;;7.30;6.60;;;;;;;;;;5132658;27;20738;-82
2022/12/02 04:01:30;;;;;;;8.85;6.75;;;;;;;;;;5132621;27;20795;-82
2022/12/02 04:03:56;;;;;;;7.37;6.67;;;;;;;;;;5112775;28;20382;-83
2022/12/02 04:06:22;;;;;;;7.57;6.75;;;;;;;;;;5129493;27;20379;-81
2022/12/02 04:08:48;;;;;;;7.47;6.77;;;;;;;;;;5094581;28;20388;-81
2022/12/02 04:11:14;;;;;;;7.47;6.72;;;;;;;;;;5113582;27;20463;-82
2022/12/02 04:13:40;;;;;;;7.47;6.68;;;;;;;;;;5094220;28;20392;-81
2022/12/02 04:16:06;;;;;;;7.00;6.30;;;;;;;;;;5112031;27;20380;-81
2022/12/02 04:18:32;;;;;;;7.50;6.80;;;;;;;;;;5117827;27;20372;-82
2022/12/02 04:20:58;;;;;;;7.43;6.72;;;;;;;;;;5093905;28;20419;-81
2022/12/02 04:23:24;;;;;;;7.57;6.78;;;;;;;;;;5094094;27;20384;-81
2022/12/02 04:25:50;;;;;;;7.33;6.63;;;;;;;;;;5133116;27;20382;-82
2022/12/02 04:28:16;;;;;;;7.72;6.93;;;;;;;;;;5131134;27;20394;-81
2022/12/02 04:30:42;;;;;;;8.23;6.97;;;;;;;;;;5130670;27;20750;-82
2022/12/02 04:33:08;;;;;;;7.78;7.00;;;;;;;;;;5134417;27;20379;-82
2022/12/02 04:35:34;;;;;;;7.85;7.05;;;;;;;;;;5130373;27;20410;-82
2022/12/02 04:38:00;;;;;;;7.50;6.80;;;;;;;;;;5127627;27;20445;-81
2022/12/02 04:40:26;;;;;;;7.13;6.53;;;;;;;;;;5131540;27;20370;-82
2022/12/02 04:42:52;;;;;;;7.40;6.70;;;;;;;;;;5136168;27;20379;-83
2022/12/02 04:45:18;;;;;;;6.50;5.90;;;;;;;;;;5135482;27;20925;-82
2022/12/02 04:47:44;;;;;;;6.57;5.97;;;;;;;;;;5135743;27;20435;-83
2022/12/02 04:50:10;;;;;;;23.35;14.50;;;;;;;;;;5136265;27;20395;-83
2022/12/02 04:52:36;;;;;;;10.70;9.60;;;;;;;;;;5136154;27;20443;-81
2022/12/02 04:55:02;;;;;;;8.63;7.53;;;;;;;;;;5135276;27;20378;-83
2022/12/02 04:57:28;;;;;;;20.70;13.15;;;;;;;;;;5133326;27;20859;-84
2022/12/02 04:59:54;;;;;;;9.47;8.47;;;;;;;;;;5135909;27;20386;-83
2022/12/02 05:02:20;;;;;;;8.00;6.40;;;;;;;;;;5135715;27;20406;-82
2022/12/02 05:04:46;;;;;;;7.35;6.65;;;;;;;;;;5126604;27;20719;-83
2022/12/02 05:07:12;;;;;;;7.53;6.82;;;;;;;;;;5117043;27;20375;-81
2022/12/02 05:09:38;;;;;;;7.63;6.82;;;;;;;;;;5135551;27;20435;-81
2022/12/02 05:12:04;;;;;;;8.93;6.95;;;;;;;;;;5135631;27;20382;-81
2022/12/02 05:14:30;;;;;;;6.85;6.25;;;;;;;;;;5117006;27;20374;-83
2022/12/02 05:16:56;;;;;;;6.93;6.32;;;;;;;;;;5116964;27;20387;-82
2022/12/02 05:19:22;;;;;;;10.38;8.45;;;;;;;;;;5135724;27;20387;-81
2022/12/02 05:21:48;;;;;;;8.63;6.57;;;;;;;;;;5135082;27;20398;-83
2022/12/02 05:24:14;;;;;;;7.35;6.47;;;;;;;;;;5134683;27;20769;-82
2022/12/02 05:26:40;;;;;;;8.65;7.70;;;;;;;;;;5135600;27;20861;-82
2022/12/02 05:29:07;;;;;;;10.90;8.50;;;;;;;;;;5135041;27;20374;-84
2022/12/02 05:31:32;;;;;;;10.77;8.05;;;;;;;;;;5135251;27;20370;-84
2022/12/02 05:33:59;;;;;;;9.52;7.90;;;;;;;;;;5135109;27;20855;-82
2022/12/02 05:36:25;;;;;;;7.60;6.90;;;;;;;;;;5137746;27;20462;-81
2022/12/02 05:38:51;;;;;;;7.20;6.60;;;;;;;;;;5135097;27;20740;-83
2022/12/02 05:41:16;;;;;;;7.33;6.63;;;;;;;;;;5134974;27;20409;-82
2022/12/02 05:43:43;;;;;;;7.25;6.63;;;;;;;;;;5133913;27;20494;-81
2022/12/02 05:46:16;;;;;;;6.97;6.38;;;;;;;;;;5142125;27;20425;-82
2022/12/02 05:48:43;;;;;;;7.15;6.55;;;;;;;;;;5130421;27;20389;-83
2022/12/02 05:51:10;;;;;;;7.05;6.45;;;;;;;;;;5114559;28;20733;-83
2022/12/02 05:53:38;;;;;;;6.97;6.38;;;;;;;;;;5114577;28;20404;-82
2022/12/02 05:56:06;;;;;;;7.07;6.47;;;;;;;;;;5112816;27;20852;-81
2022/12/02 05:58:32;;;;;;;6.28;5.78;;;;;;;;;;5116412;27;20852;-81
2022/12/02 06:00:58;;;;;;;7.00;6.40;;;;;;;;;;5134479;27;20414;-81
2022/12/02 06:03:24;;;;;;;6.68;6.18;;;;;;;;;;5132447;27;20439;-81
2022/12/02 06:05:52;;;;;;;6.60;6.03;;;;;;;;;;5127874;27;20859;-81
2022/12/02 06:08:30;;;;;;;6.40;5.80;;;;;;;;;;5133494;27;20440;-82
2022/12/02 06:11:00;;;;;;;6.80;6.20;;;;;;;;;;5113967;28;20467;-82
2022/12/02 06:13:28;;;;;;;6.60;6.10;;;;;;;;;;5120231;27;20516;-82
2022/12/02 06:15:54;;;;;;;7.18;6.57;;;;;;;;;;5134704;27;20390;-82
2022/12/02 06:18:22;;;;;;;7.13;6.53;;;;;;;;;;5133915;27;20386;-82
2022/12/02 06:20:51;;;;;;;7.00;6.45;;;;;;;;;;5115752;27;20410;-82
2022/12/02 06:23:19;;;;;;;7.60;6.90;;;;;;;;;;5136727;27;20430;-82
2022/12/02 06:25:45;;;;;;;7.18;6.57;;;;;;;;;;5133844;27;20454;-82
2022/12/02 06:28:18;;;;;;;7.43;6.82;;;;;;;;;;5133158;27;20387;-83
2022/12/02 06:30:44;;;;;;;9.63;7.90;;;;;;;;;;5133819;27;20417;-82
2022/12/02 06:33:18;;;;;;;6.60;6.10;;;;;;;;;;5133419;27;20367;-81
2022/12/02 06:35:44;;;;;;;7.50;6.80;;;;;;;;;;5115487;27;20516;-81
2022/12/02 06:38:17;;;;;;;11.90;10.90;;;;;;;;;;5134133;27;20504;-82
2022/12/02 06:40:43;;;;;;;9.00;8.20;;;;;;;;;;5134016;27;20469;-84
2022/12/02 06:43:15;;;;;;;8.68;7.97;;;;;;;;;;5134028;27;20908;-81
2022/12/02 06:45:42;;;;;;;6.65;6.05;;;;;;;;;;5133632;27;20515;-83
2022/12/02 06:48:26;;;;;;;14.25;12.98;;;;;;;;;;5133703;27;20916;-82
2022/12/02 06:50:52;;;;;;;6.90;6.30;;;;;;;;;;5136254;27;20422;-82
2022/12/02 06:53:18;;;;;;;6.72;6.13;;;;;;;;;;5134999;27;20390;-82
2022/12/02 06:55:44;;;;;;;5.90;5.40;;;;;;;;;;5133110;27;20389;-82
2022/12/02 06:58:22;;;;;;;6.40;5.80;;;;;;;;;;5133380;27;20375;-83
2022/12/02 07:00:48;;;;;;;6.88;5.97;;;;;;;;;;5133621;27;20469;-82
2022/12/02 07:03:31;;;;;;;6.25;5.65;;;;;;;;;;5129553;27;20424;-83
2022/12/02 07:06:01;;;;;;;6.55;6.03;;;;;;;;;;5109321;27;20870;-83
2022/12/02 07:08:27;;;;;;;6.30;5.75;;;;;;;;;;5131673;27;20430;-83
2022/12/02 07:10:53;;;;;;;6.45;5.85;;;;;;;;;;5114601;27;20455;-82
2022/12/02 07:13:19;;;;;;;6.00;5.50;;;;;;;;;;5131612;27;20390;-83
2022/12/02 07:15:45;;;;;;;6.07;5.53;;;;;;;;;;5115235;27;20375;-83
2022/12/02 07:18:16;;;;;;;6.13;5.63;;;;;;;;;;5133373;27;20382;-83
2022/12/02 07:20:43;;;;;;;6.05;5.45;;;;;;;;;;5133326;27;20422;-82
2022/12/02 07:23:27;;;;;;;6.00;5.50;;;;;;;;;;5129846;27;20414;-82
2022/12/02 07:25:54;;;;;;;6.50;5.77;;;;;;;;;;5133641;27;20411;-82
2022/12/02 07:28:20;;;;;;;8.30;7.60;;;;;;;;;;5135856;27;20457;-82
2022/12/02 07:30:55;;;;;;;7.25;6.55;;;;;;;;;;5114824;28;20390;-82
2022/12/02 07:33:21;;;;;;;7.43;6.78;;;;;;;;;;5133339;27;20426;-83
2022/12/02 07:35:47;;;;;;;6.93;6.32;;;;;;;;;;5133184;27;20976;-82
2022/12/02 07:38:13;;;;;;;6.90;6.30;;;;;;;;;;5114649;28;20390;-82
2022/12/02 07:40:41;;;;;;;6.77;6.17;;;;;;;;;;5130591;27;20385;-81
2022/12/02 07:43:07;;;;;;;6.50;6.00;;;;;;;;;;5132937;27;20717;-81
2022/12/02 07:45:33;;;;;;;6.65;6.13;;;;;;;;;;5133189;27;20382;-82
2022/12/02 07:47:59;;;;;;;8.23;7.43;;;;;;;;;;5133294;27;20383;-82
2022/12/02 07:50:25;;;;;;;7.88;7.22;;;;;;;;;;5133387;27;20410;-81
2022/12/02 07:52:52;;;;;;;7.68;6.97;;;;;;;;;;5130906;27;20379;-81
2022/12/02 07:55:18;;;;;;;7.65;6.93;;;;;;;;;;5114429;28;20867;-81
2022/12/02 07:57:44;;;;;;;8.00;7.20;;;;;;;;;;5114527;27;20485;-82
2022/12/02 08:00:10;;;;;;;7.97;7.28;;;;;;;;;;5132731;27;20375;-82
2022/12/02 08:02:36;;;;;;;8.52;7.72;;;;;;;;;;5132106;27;20499;-82
2022/12/02 08:05:03;;;;;;;8.93;8.13;;;;;;;;;;5123928;27;20375;-82
2022/12/02 08:07:29;;;;;;;10.35;9.35;;;;;;;;;;5135269;27;20390;-82
2022/12/02 08:09:55;;;;;;;12.07;10.82;;;;;;;;;;5136575;27;20800;-81
2022/12/02 08:12:21;;;;;;;11.90;10.70;;;;;;;;;;5138097;27;20408;-84
2022/12/02 08:14:47;;;;;;;11.05;9.95;;;;;;;;;;5135803;27;20374;-84
2022/12/02 08:17:13;;;;;;;11.43;10.23;;;;;;;;;;5117531;27;20903;-84
2022/12/02 08:19:40;;;;;;;10.03;9.13;;;;;;;;;;5139709;27;20427;-84
2022/12/02 08:22:06;;;;;;;10.85;9.85;;;;;;;;;;5136603;27;20446;-84
2022/12/02 08:24:32;;;;;;;10.43;9.43;;;;;;;;;;5136411;27;20874;-84
2022/12/02 08:26:58;;;;;;;10.57;9.48;;;;;;;;;;5135457;27;20836;-84
2022/12/02 08:29:24;;;;;;;11.23;9.20;;;;;;;;;;5136396;27;20443;-84
2022/12/02 08:31:50;;;;;;;10.85;9.65;;;;;;;;;;5136334;27;20375;-84
2022/12/02 08:34:16;;;;;;;9.43;8.52;;;;;;;;;;5136306;27;20382;-84
2022/12/02 08:36:42;;;;;;;10.48;9.48;;;;;;;;;;5136332;27;20443;-84
2022/12/02 08:39:08;;;;;;;11.13;10.02;;;;;;;;;;5136267;27;20861;-84
2022/12/02 08:41:35;;;;;;;11.30;10.20;;;;;;;;;;5117609;27;20402;-84
2022/12/02 08:44:01;;;;;;;12.30;9.63;;;;;;;;;;5136336;27;20386;-84
2022/12/02 08:46:27;;;;;;;10.38;9.38;;;;;;;;;;5136727;27;20466;-84
2022/12/02 08:48:53;;;;;;;11.18;10.07;;;;;;;;;;5136381;27;20469;-84
2022/12/02 08:51:19;;;;;;;11.18;10.07;;;;;;;;;;5136292;27;20444;-84
2022/12/02 08:53:45;;;;;;;10.90;9.85;;;;;;;;;;5132699;27;20371;-84
2022/12/02 08:56:11;;;;;;;10.90;9.80;;;;;;;;;;5135681;27;20712;-84
2022/12/02 08:58:37;;;;;;;10.88;9.77;;;;;;;;;;5135836;27;20428;-84
2022/12/02 09:01:03;;;;;;;10.95;9.85;;;;;;;;;;5117307;27;20410;-84
2022/12/02 09:03:29;;;;;;;11.98;10.60;;;;;;;;;;5133002;27;20453;-84
2022/12/02 09:05:56;;;;;;;12.48;10.80;;;;;;;;;;5129495;27;20383;-84
2022/12/02 09:08:22;;;;;;;11.20;10.05;;;;;;;;;;5135857;27;20378;-84
2022/12/02 09:10:48;;;;;;;11.65;10.45;;;;;;;;;;5117368;27;20708;-84
2022/12/02 09:13:14;;;;;;;11.70;10.50;;;;;;;;;;5135722;27;20383;-84
2022/12/02 09:15:40;;;;;;;11.32;10.23;;;;;;;;;;5135756;27;20391;-84
2022/12/02 09:18:06;;;;;;;10.90;9.80;;;;;;;;;;5134634;27;20373;-83
2022/12/02 09:20:32;;;;;;;11.88;10.63;;;;;;;;;;5136532;27;20387;-83
2022/12/02 09:23:00;;;;;;;11.80;10.55;;;;;;;;;;5135643;27;20867;-83
2022/12/02 09:25:26;;;;;;;11.77;10.57;;;;;;;;;;5135213;27;20375;-83
2022/12/02 09:27:52;;;;;;;11.30;10.20;;;;;;;;;;5135238;27;20385;-83
2022/12/02 09:30:18;;;;;;;11.48;10.38;;;;;;;;;;5135462;27;20473;-83
2022/12/02 09:32:44;;;;;;;11.23;10.13;;;;;;;;;;5135185;27;20719;-83
2022/12/02 09:35:10;;;;;;;11.18;10.07;;;;;;;;;;5135443;27;20453;-83
2022/12/02 09:37:36;;;;;;;12.98;11.13;;;;;;;;;;5135159;27;20855;-83
2022/12/02 09:40:02;;;;;;;11.73;10.52;;;;;;;;;;5135349;27;20386;-85
2022/12/02 09:42:28;;;;;;;12.63;10.60;;;;;;;;;;5135102;27;20411;-82
2022/12/02 09:44:54;;;;;;;11.60;10.40;;;;;;;;;;5135243;27;20374;-82
2022/12/02 09:47:21;;;;;;;11.70;10.45;;;;;;;;;;5135235;27;20720;-82
2022/12/02 09:49:47;;;;;;;11.50;10.05;;;;;;;;;;5135411;27;20474;-82
2022/12/02 09:52:15;;;;;;;11.98;10.70;;;;;;;;;;5134961;27;20362;-83
2022/12/02 09:54:42;;;;;;;14.63;11.53;;;;;;;;;;5134570;27;20391;-81
2022/12/02 09:57:13;;;;;;;13.20;11.80;;;;;;;;;;5131569;27;20378;-82
2022/12/02 09:59:39;;;;;;;11.15;10.10;;;;;;;;;;5134541;27;20416;-82
2022/12/02 10:02:05;;;;;;;11.25;10.10;;;;;;;;;;5134370;27;20410;-82
2022/12/02 10:04:33;;;;;;;11.98;10.77;;;;;;;;;;5125211;27;20457;-82
2022/12/02 10:06:59;;;;;;;11.15;10.15;;;;;;;;;;5134678;27;20434;-82
2022/12/02 10:09:27;;;;;;;10.90;9.80;;;;;;;;;;5134501;27;20374;-82
2022/12/02 10:11:53;;;;;;;10.45;9.35;;;;;;;;;;5137341;27;20371;-82
2022/12/02 10:14:19;;;;;;;11.40;10.30;;;;;;;;;;5134826;27;20387;-82
2022/12/02 10:16:45;;;;;;;10.52;9.55;;;;;;;;;;5134553;27;20367;-82
2022/12/02 10:19:16;;;;;;;10.98;9.98;;;;;;;;;;5136047;27;20932;-82
2022/12/02 10:21:42;;;;;;;10.05;9.15;;;;;;;;;;5137173;27;20398;-82
2022/12/02 10:24:08;;;;;;;13.15;10.88;;;;;;;;;;5134390;27;20366;-83
2022/12/02 10:26:45;;;;;;;10.88;9.88;;;;;;;;;;5134415;27;20402;-83
2022/12/02 10:29:14;;;;;;;11.38;10.35;;;;;;;;;;5133849;27;20519;-82
2022/12/02 10:31:52;;;;;;;10.52;9.63;;;;;;;;;;5134151;27;20419;-82
2022/12/02 10:34:19;;;;;;;10.55;9.55;;;;;;;;;;5134179;27;20428;-82
2022/12/02 10:36:45;;;;;;;11.07;9.97;;;;;;;;;;5134374;27;20453;-82
2022/12/02 10:39:17;;;;;;;10.77;9.75;;;;;;;;;;5134354;27;20378;-83
2022/12/02 10:41:44;;;;;;;11.30;10.20;;;;;;;;;;5134102;27;20500;-82
2022/12/02 10:44:14;;;;;;;11.27;10.18;;;;;;;;;;5133850;27;20409;-82
2022/12/02 10:46:40;;;;;;;10.83;9.90;;;;;;;;;;5133988;27;20415;-82
2022/12/02 10:49:25;;;;;;;11.10;10.10;;;;;;;;;;5130656;27;20373;-82
2022/12/02 10:51:51;;;;;;;11.43;10.27;;;;;;;;;;5133835;27;20406;-82
2022/12/02 10:54:22;;;;;;;11.35;10.25;;;;;;;;;;5117505;27;20889;-87
2022/12/02 10:56:48;;;;;;;12.10;10.90;;;;;;;;;;5132248;27;20370;-87
2022/12/02 10:59:15;;;;;;;13.73;12.35;;;;;;;;;;5133160;27;20464;-88
2022/12/02 11:01:42;;;;;;;92.57;55.58;;;;;;;;;;5114825;27;20406;-87
2022/12/02 11:04:11;;;;;;;25.27;19.00;;;;;;;;;;5125356;27;20711;-88
2022/12/02 11:06:37;;;;;;;12.13;10.70;;;;;;;;;;5131987;27;20442;-87
2022/12/02 11:09:03;;;;;;;12.32;11.07;;;;;;;;;;5133103;27;20403;-88
2022/12/02 11:11:29;;;;;;;12.48;11.18;;;;;;;;;;5133262;27;20378;-88
2022/12/02 11:13:55;;;;;;;12.85;11.55;;;;;;;;;;5132984;27;20389;-88
2022/12/02 11:16:27;;;;;;;18.37;14.50;;;;;;;;;;5112202;27;20390;-87
2022/12/02 11:19:22;;;;;;;12.85;11.55;;;;;;;;;;5142944;27;20380;-87
2022/12/02 11:21:48;;;;;;;13.65;12.25;;;;;;;;;;5112954;28;20941;-87
2022/12/02 11:24:25;;;;;;;19.17;17.20;;;;;;;;;;5113027;28;20408;-88
2022/12/02 11:27:01;;;;;;;14.02;12.52;;;;;;;;;;5113551;27;20542;-86
2022/12/02 11:29:28;;;;;;;12.68;11.52;;;;;;;;;;5133470;27;20428;-88
2022/12/02 11:32:13;;;;;;;13.25;11.43;;;;;;;;;;5112659;27;20449;-86
2022/12/02 11:34:52;;;;;;;14.57;13.10;;;;;;;;;;5133332;27;20429;-86
2022/12/02 11:37:28;;;;;;;11.90;10.80;;;;;;;;;;5114683;27;20389;-86
2022/12/02 11:39:55;;;;;;;12.15;11.05;;;;;;;;;;5133452;27;20382;-88
2022/12/02 11:42:28;;;;;;;11.90;10.88;;;;;;;;;;5119015;27;20426;-86
2022/12/02 11:45:10;;;;;;;11.32;10.10;;;;;;;;;;5137214;27;20431;-87
2022/12/02 11:47:36;;;;;;;12.30;10.98;;;;;;;;;;5137074;27;20374;-87
2022/12/02 11:50:14;;;;;;;13.30;12.02;;;;;;;;;;5137306;27;20473;-86
2022/12/02 11:52:41;;;;;;;11.93;10.82;;;;;;;;;;5118751;27;20450;-88
2022/12/02 11:55:21;;;;;;;12.40;11.20;;;;;;;;;;5137218;27;20386;-87
2022/12/02 11:57:55;;;;;;;12.05;10.43;;;;;;;;;;5137221;27;20385;-86
2022/12/02 12:00:24;;;;;;;11.85;10.68;;;;;;;;;;5135850;27;20370;-87
2022/12/02 12:03:05;;;;;;;11.60;10.45;;;;;;;;;;5136416;27;20477;-86
2022/12/02 12:05:31;;;;;;;11.95;10.75;;;;;;;;;;5132332;27;20387;-86
2022/12/02 12:07:57;;;;;;;11.80;10.60;;;;;;;;;;5136367;27;20383;-87
2022/12/02 12:10:23;;;;;;;11.55;10.45;;;;;;;;;;5136532;27;20922;-86
2022/12/02 12:13:08;;;;;;;34.08;29.40;;;;;;;;;;5136516;27;20787;-87
2022/12/02 12:15:47;;;;;;;12.55;11.35;;;;;;;;;;5118274;27;20381;-87
2022/12/02 12:18:33;;;;;;;14.77;13.32;;;;;;;;;;5134085;27;20390;-87
2022/12/02 12:20:59;;;;;;;11.23;10.18;;;;;;;;;;5117688;27;20375;-89
2022/12/02 12:23:29;;;;;;;10.60;9.63;;;;;;;;;;5132545;27;20398;-88
2022/12/02 12:25:55;;;;;;;11.18;10.10;;;;;;;;;;5132875;27;20967;-87
2022/12/02 12:28:23;;;;;;;11.07;10.07;;;;;;;;;;5135354;27;20528;-87
2022/12/02 12:30:49;;;;;;;11.23;10.13;;;;;;;;;;5136053;27;20386;-88
2022/12/02 12:33:15;;;;;;;16.25;14.55;;;;;;;;;;5136367;27;20449;-88
2022/12/02 12:35:41;;;;;;;14.57;13.07;;;;;;;;;;5136369;27;20911;-87
2022/12/02 12:38:07;;;;;;;11.52;10.43;;;;;;;;;;5136425;27;20379;-87
2022/12/02 12:40:33;;;;;;;11.35;10.25;;;;;;;;;;5136238;27;20735;-87
2022/12/02 12:42:59;;;;;;;135.35;65.30;;;;;;;;;;5135914;27;20414;-87
2022/12/02 12:45:25;;;;;;;201.00;80.28;;;;;;;;;;5133026;27;20432;-86
2022/12/02 12:47:51;;;;;;;59.10;30.30;;;;;;;;;;5135489;27;20844;-86
2022/12/02 12:50:17;;;;;;;14.25;12.65;;;;;;;;;;5136003;27;20395;-88
2022/12/02 12:52:43;;;;;;;11.32;10.32;;;;;;;;;;5116666;27;20395;-89
2022/12/02 12:55:09;;;;;;;16.45;13.88;;;;;;;;;;5117695;27;20793;-89
2022/12/02 12:57:35;;;;;;;14.32;12.82;;;;;;;;;;5117305;27;20382;-89
2022/12/02 13:00:01;;;;;;;29.73;24.55;;;;;;;;;;5132752;27;20466;-88
2022/12/02 13:02:27;;;;;;;10.38;9.48;;;;;;;;;;5135527;27;20414;-88
2022/12/02 13:04:53;;;;;;;12.37;11.23;;;;;;;;;;5130072;27;20427;-89
2022/12/02 13:07:19;;;;;;;10.75;9.80;;;;;;;;;;5135744;27;20883;-90
2022/12/02 13:09:45;;;;;;;15.50;14.00;;;;;;;;;;5135574;27;20478;-89
2022/12/02 13:12:11;;;;;;;13.23;11.98;;;;;;;;;;5135497;27;20769;-89
2022/12/02 13:14:37;;;;;;;13.50;12.10;;;;;;;;;;5135544;27;20421;-88
2022/12/02 13:17:03;;;;;;;12.75;11.50;;;;;;;;;;5114522;27;20371;-90
2022/12/02 13:19:29;;;;;;;12.68;11.45;;;;;;;;;;5133165;27;20926;-90
2022/12/02 13:21:55;;;;;;;12.13;10.93;;;;;;;;;;5130007;27;20412;-91
2022/12/02 13:24:21;;;;;;;12.37;11.07;;;;;;;;;;5135392;27;20467;-90
2022/12/02 13:26:47;;;;;;;11.82;10.73;;;;;;;;;;5135431;27;20371;-89
2022/12/02 13:29:13;;;;;;;11.77;10.77;;;;;;;;;;5134964;27;20739;-90
2022/12/02 13:31:39;;;;;;;11.55;10.48;;;;;;;;;;5113220;27;20462;-90
2022/12/02 13:34:05;;;;;;;11.23;10.13;;;;;;;;;;5137788;27;20900;-89
2022/12/02 13:36:31;;;;;;;13.63;12.07;;;;;;;;;;5135358;27;20387;-90
2022/12/02 13:38:57;;;;;;;11.50;10.60;;;;;;;;;;5134855;27;20466;-87
2022/12/02 13:41:23;;;;;;;11.27;10.27;;;;;;;;;;5135405;27;20898;-87
2022/12/02 13:43:49;;;;;;;10.20;9.30;;;;;;;;;;5137128;27;20440;-88
2022/12/02 13:46:15;;;;;;;10.93;9.82;;;;;;;;;;5136985;27;20383;-87
2022/12/02 13:48:41;;;;;;;11.95;10.85;;;;;;;;;;5136581;27;20371;-88
2022/12/02 13:51:07;;;;;;;11.63;10.63;;;;;;;;;;5136637;27;20862;-86
2022/12/02 13:53:33;;;;;;;12.43;11.15;;;;;;;;;;5113574;27;20393;-89
2022/12/02 13:55:59;;;;;;;11.50;10.50;;;;;;;;;;5134945;27;20470;-87
2022/12/02 13:58:25;;;;;;;12.85;11.57;;;;;;;;;;5134787;27;20470;-88
2022/12/02 14:00:51;;;;;;;13.05;11.80;;;;;;;;;;5134728;27;20448;-91
2022/12/02 14:03:17;;;;;;;11.50;10.48;;;;;;;;;;5133724;27;20510;-89
2022/12/02 14:05:43;;;;;;;13.65;12.00;;;;;;;;;;5126152;27;20473;-89
2022/12/02 14:08:09;;;;;;;11.40;10.30;;;;;;;;;;5134620;27;20418;-88
2022/12/02 14:10:35;;;;;;;10.85;9.95;;;;;;;;;;5137297;27;20426;-90
2022/12/02 14:13:01;;;;;;;10.80;9.80;;;;;;;;;;5115755;27;20809;-90
2022/12/02 14:15:28;;;;;;;11.57;10.48;;;;;;;;;;5116073;27;20875;-91
2022/12/02 14:17:54;;;;;;;11.23;10.18;;;;;;;;;;5115725;27;20875;-89
2022/12/02 14:20:20;;;;;;;11.10;10.07;;;;;;;;;;5115732;27;20390;-89
2022/12/02 14:22:46;;;;;;;11.25;10.25;;;;;;;;;;5133654;27;20410;-89
2022/12/02 14:25:12;;;;;;;11.67;10.43;;;;;;;;;;5134040;27;20476;-92
2022/12/02 14:27:38;;;;;;;11.13;10.23;;;;;;;;;;5115570;27;20933;-89
2022/12/02 14:30:04;;;;;;;11.35;10.35;;;;;;;;;;5134080;27;20424;-88
2022/12/02 14:32:30;;;;;;;11.32;10.23;;;;;;;;;;5115337;27;20382;-88
2022/12/02 14:34:56;;;;;;;12.47;11.33;;;;;;;;;;5133801;27;20460;-90